Aérodrome :
LOGIN :

S'inscrire | Disclaimer

   EN    FR    IT 

 










Légende :    VFR   VFR Marginal   IFR   IFR Intensif   IFR Très Intensif
Visi : 
Plafond : 
>= 8 km
>= 3000ft
5 à 8 km
1000 à 3000 ft
1500m à 5 km
500 à 1000 ft
800 à 1500m
200 à 500 ft
< 800m
< 200 ft
Symboles :   Orages  Brouillard  Fortes neiges  Fortes précipitations  Vent > 20 kt
SIGMETs :   Divers  Orages  Givrage  Turbulence  Onde Orograph.  Cendres Volcan.






- Altitude de l'aérodrome : 41 ft


LIRE - Pratica di Mare Air Base Pomezia

DERNIER METAR :
  • 060955Z 11005KT 9999 SCT070 15/10 Q1023 RMK BKN BKN200 VIS MIN 9999 WIND THR13 11004KT WIND THR31 11006KT BLU

METARs EXPIRÉS :
  • 060855Z 04004KT 9999 SCT070 13/10 Q1023 RMK BKN SCT200 VIS MIN 9999 WIND THR13 04004KT WIND THR31 05003KT BLU
  • 060755Z 03009KT 9999 FEW025 SCT070 10/08 Q1023 RMK SCT VIS MIN 9999 WIND THR13 03005KT WIND THR31 03006KT BLU

TAF TAF LIRE
Valide du 06 à 09h jusqu'au 06 à 18h UTC


060800Z 0609/0618 06008KT 9999 FEW020 SCT050
TEMPO 0612/0618 FEW025TCU



MET'MAP, la Météo Aéronautique d'un coup d'oeil ! - Copyright ORBIFLY Décembre 2007 - Disclaimer

ORBIFLY MET'MAP TEAM :

Programmation & Développement : Alexandra Zaïnal
Sur une idée originale de : Baudouin d'Aumeries
Assistance à la programmation : Marc-Olivier Méhu
Soutien technique & logistique : Manuel Goepfert

Contact : metmap@orbifly.com




SOURCES & CREDITS :

   NOAA